Time;durP1;ratioP1;P1;durP2;ratioP2;P2;SDS_P1;SDS_P2;PMS_P1;PMS_P2;Temp;Humidity;BMP_temperature;BMP_pressure;BME280_temperature;BME280_humidity;BME280_pressure;Samples;Min_cycle;Max_cycle;Signal;HPM_P1;HPM_P2
2022/03/20 00:00:44;;;;;;;113.85;102.78;;;8.20;70.10;;;;;;5036193;28;20060;-77
2022/03/20 00:03:12;;;;;;;113.60;102.80;;;8.20;70.30;;;;;;5053716;28;20049;-77
2022/03/20 00:05:42;;;;;;;114.03;102.82;;;8.20;70.30;;;;;;5019585;28;20048;-77
2022/03/20 00:08:11;;;;;;;114.78;103.43;;;8.10;70.50;;;;;;5019123;28;20049;-77
2022/03/20 00:10:38;;;;;;;115.18;104.05;;;8.10;70.50;;;;;;5035948;28;20050;-77
2022/03/20 00:13:07;;;;;;;113.85;102.88;;;8.10;70.90;;;;;;5019456;28;20517;-77
2022/03/20 00:15:34;;;;;;;113.57;102.68;;;8.10;71.00;;;;;;5035681;28;20048;-77
2022/03/20 00:18:03;;;;;;;115.90;104.65;;;8.00;71.60;;;;;;5053386;28;20530;-76
2022/03/20 00:20:35;;;;;;;118.47;105.82;;;8.10;71.60;;;;;;5047304;28;20514;-76
2022/03/20 00:23:06;;;;;;;114.88;103.70;;;8.00;71.80;;;;;;5055601;28;20041;-77
2022/03/20 00:25:34;;;;;;;113.95;102.72;;;8.10;72.00;;;;;;5055654;28;20061;-77
2022/03/20 00:28:03;;;;;;;114.88;103.68;;;8.00;72.00;;;;;;5055344;28;20670;-77
2022/03/20 00:30:30;;;;;;;115.03;103.70;;;8.00;71.90;;;;;;5055995;28;20057;-77
2022/03/20 00:32:57;;;;;;;115.25;104.07;;;8.00;72.10;;;;;;5055495;28;20457;-76
2022/03/20 00:35:24;;;;;;;115.78;104.47;;;8.00;72.30;;;;;;5073499;28;20056;-77
2022/03/20 00:37:51;;;;;;;114.30;103.10;;;7.90;72.40;;;;;;5054930;28;20113;-77
2022/03/20 00:40:21;;;;;;;114.70;103.50;;;8.00;72.60;;;;;;5035652;28;20053;-77
2022/03/20 00:42:47;;;;;;;113.97;102.78;;;7.90;72.60;;;;;;5053132;28;20672;-77
2022/03/20 00:45:14;;;;;;;114.75;103.53;;;7.90;72.40;;;;;;5055350;28;20049;-77
2022/03/20 00:47:41;;;;;;;115.22;103.95;;;7.90;72.60;;;;;;5039234;28;20080;-77
2022/03/20 00:50:09;;;;;;;114.93;103.80;;;8.00;72.60;;;;;;5036268;28;20543;-77
2022/03/20 00:52:36;;;;;;;115.00;103.80;;;8.00;72.50;;;;;;5056542;28;20139;-76
2022/03/20 00:55:04;;;;;;;115.30;104.10;;;8.00;72.60;;;;;;5038686;28;20052;-77
2022/03/20 00:57:32;;;;;;;115.57;104.18;;;7.90;72.40;;;;;;5038844;28;20060;-77
2022/03/20 00:59:59;;;;;;;113.85;102.75;;;7.80;72.60;;;;;;5038396;28;20085;-77
2022/03/20 01:02:26;;;;;;;114.70;103.50;;;7.70;72.70;;;;;;5038910;28;20503;-76
2022/03/20 01:04:53;;;;;;;113.70;102.50;;;7.70;73.20;;;;;;5038743;28;20077;-77
2022/03/20 01:07:20;;;;;;;114.93;103.53;;;7.60;73.50;;;;;;5057865;28;20053;-77
2022/03/20 01:09:47;;;;;;;113.82;102.63;;;7.60;73.80;;;;;;5022355;28;20838;-77
2022/03/20 01:12:14;;;;;;;114.45;103.30;;;7.60;74.00;;;;;;5038431;28;20133;-77
2022/03/20 01:14:43;;;;;;;114.32;103.32;;;7.60;74.60;;;;;;5038842;28;20064;-76
2022/03/20 01:17:10;;;;;;;114.85;103.63;;;7.50;74.10;;;;;;5038448;28;20119;-76
2022/03/20 01:19:37;;;;;;;115.43;103.88;;;7.50;74.50;;;;;;5057023;28;20491;-76
2022/03/20 01:22:24;;;;;;;113.68;102.57;;;7.50;74.70;;;;;;5061851;28;20059;-77
2022/03/20 01:24:51;;;;;;;116.07;104.38;;;7.50;75.00;;;;;;5037839;28;20045;-77
2022/03/20 01:27:18;;;;;;;114.10;102.90;;;7.50;75.30;;;;;;5057934;28;20041;-77
2022/03/20 01:29:46;;;;;;;113.90;102.82;;;7.40;75.90;;;;;;5058119;28;20052;-77
2022/03/20 01:32:14;;;;;;;114.07;102.75;;;7.40;75.70;;;;;;5076569;28;20138;-76
2022/03/20 01:34:41;;;;;;;113.10;102.00;;;7.40;76.10;;;;;;5057768;28;20052;-76
2022/03/20 01:37:09;;;;;;;115.68;104.28;;;7.30;76.60;;;;;;5076389;28;20053;-76
2022/03/20 01:39:36;;;;;;;114.43;103.10;;;7.30;76.70;;;;;;5057869;28;20083;-76
2022/03/20 01:42:03;;;;;;;115.15;103.75;;;7.30;77.00;;;;;;5058073;28;20569;-76
2022/03/20 01:44:34;;;;;;;115.22;103.65;;;7.30;77.10;;;;;;5076011;28;20059;-76
2022/03/20 01:47:02;;;;;;;116.40;105.05;;;7.30;77.50;;;;;;5076136;28;20826;-76
2022/03/20 01:49:30;;;;;;;114.18;102.82;;;7.20;77.70;;;;;;5057778;28;20502;-76
2022/03/20 01:52:13;;;;;;;114.20;102.88;;;7.20;77.90;;;;;;5044354;28;20052;-76
2022/03/20 01:54:44;;;;;;;114.93;103.38;;;7.10;78.20;;;;;;5055681;28;20504;-76
2022/03/20 01:57:15;;;;;;;116.35;104.57;;;7.10;78.50;;;;;;5037654;28;20080;-76
2022/03/20 01:59:42;;;;;;;114.28;103.00;;;7.10;78.70;;;;;;5037560;28;20046;-76
2022/03/20 02:02:11;;;;;;;116.22;104.78;;;7.00;79.30;;;;;;5054623;28;20060;-76
2022/03/20 02:04:38;;;;;;;114.63;103.40;;;6.90;79.50;;;;;;5055505;28;20136;-76
2022/03/20 02:07:07;;;;;;;117.03;105.32;;;7.00;79.60;;;;;;5055780;28;20053;-76
2022/03/20 02:09:37;;;;;;;114.38;103.18;;;7.00;79.70;;;;;;5037363;28;20053;-76
2022/03/20 02:12:05;;;;;;;114.75;103.15;;;6.90;79.80;;;;;;5037619;28;20053;-76
2022/03/20 02:14:33;;;;;;;114.18;102.82;;;6.90;80.00;;;;;;5021338;28;20805;-76
2022/03/20 02:17:00;;;;;;;116.57;105.03;;;6.90;80.10;;;;;;5037527;28;20538;-76
2022/03/20 02:19:29;;;;;;;114.78;103.40;;;6.80;80.30;;;;;;5037420;28;20045;-76
2022/03/20 02:21:57;;;;;;;115.20;103.70;;;6.90;80.70;;;;;;5055315;28;20132;-76
2022/03/20 02:24:38;;;;;;;114.07;102.72;;;6.90;80.70;;;;;;5055237;28;20054;-77
2022/03/20 02:27:14;;;;;;;116.53;104.93;;;6.90;80.70;;;;;;5037271;28;20069;-77
2022/03/20 02:29:42;;;;;;;114.55;103.05;;;6.80;80.60;;;;;;5037705;28;20103;-76
2022/03/20 02:32:12;;;;;;;116.60;105.05;;;6.90;80.50;;;;;;5055127;28;20053;-76
2022/03/20 02:34:40;;;;;;;115.82;104.40;;;6.80;80.60;;;;;;5055239;28;20049;-76
2022/03/20 02:37:09;;;;;;;117.03;105.20;;;6.80;80.60;;;;;;5054806;28;20135;-76
2022/03/20 02:39:36;;;;;;;114.95;103.38;;;6.80;80.60;;;;;;5037086;28;20058;-77
2022/03/20 02:42:05;;;;;;;116.30;104.60;;;6.70;80.90;;;;;;5037412;28;20181;-76
2022/03/20 02:44:56;;;;;;;115.15;103.50;;;6.60;81.30;;;;;;5037072;28;20547;-76
2022/03/20 02:47:26;;;;;;;115.75;104.13;;;6.60;81.40;;;;;;5054631;28;20056;-76
2022/03/20 02:49:54;;;;;;;114.53;103.03;;;6.60;81.50;;;;;;5054771;28;20049;-76
2022/03/20 02:52:25;;;;;;;114.22;102.93;;;6.50;81.60;;;;;;5055011;28;20056;-76
2022/03/20 02:54:53;;;;;;;117.60;105.63;;;6.50;81.90;;;;;;5037301;28;20131;-76
2022/03/20 02:57:20;;;;;;;117.03;105.10;;;6.50;82.00;;;;;;5036720;28;20053;-76
2022/03/20 02:59:48;;;;;;;116.88;104.75;;;6.40;82.20;;;;;;5037096;28;20072;-76
2022/03/20 03:02:15;;;;;;;116.97;105.25;;;6.30;82.40;;;;;;5037032;28;20514;-76
2022/03/20 03:04:42;;;;;;;116.45;104.55;;;6.30;82.70;;;;;;5054345;28;20708;-76
2022/03/20 03:07:10;;;;;;;117.80;106.05;;;6.20;82.90;;;;;;5036660;28;20085;-76
2022/03/20 03:12:25;;;;;;;117.68;105.78;;;6.20;83.30;;;;;;5054247;28;20523;-76
2022/03/20 03:17:36;;;;;;;117.47;105.63;;;6.10;83.80;;;;;;5036391;28;20049;-76
2022/03/20 03:20:04;;;;;;;117.28;105.43;;;6.10;83.80;;;;;;5036419;28;20541;-76
2022/03/20 03:22:31;;;;;;;116.68;104.70;;;6.00;83.80;;;;;;5036553;28;20057;-76
2022/03/20 03:24:59;;;;;;;117.45;105.53;;;6.00;83.80;;;;;;5020089;28;20052;-76
2022/03/20 03:27:26;;;;;;;118.90;107.00;;;6.00;84.00;;;;;;5053990;28;20072;-76
2022/03/20 03:29:53;;;;;;;118.18;106.28;;;6.00;84.10;;;;;;5036084;28;20053;-76
2022/03/20 03:32:20;;;;;;;118.30;106.10;;;5.90;84.00;;;;;;5036791;28;20057;-76
2022/03/20 03:37:32;;;;;;;119.40;107.40;;;5.90;83.90;;;;;;5035898;28;20064;-76
2022/03/20 03:40:02;;;;;;;117.25;105.25;;;5.90;84.10;;;;;;5054373;28;20080;-76
2022/03/20 03:42:30;;;;;;;118.28;106.28;;;5.90;84.20;;;;;;5036362;28;20053;-76
2022/03/20 03:44:58;;;;;;;117.88;105.60;;;5.90;84.40;;;;;;5036761;28;20050;-76
2022/03/20 03:47:25;;;;;;;118.38;106.18;;;5.80;84.60;;;;;;5053802;28;20046;-76
2022/03/20 03:49:53;;;;;;;119.35;107.18;;;5.80;84.40;;;;;;5036108;28;20060;-76
2022/03/20 03:52:19;;;;;;;118.22;106.28;;;5.80;84.60;;;;;;5036296;28;20555;-76
2022/03/20 03:54:47;;;;;;;119.65;107.35;;;5.80;84.70;;;;;;5036249;28;20129;-76
2022/03/20 03:57:15;;;;;;;120.55;108.30;;;5.80;84.70;;;;;;5038536;28;20045;-76
2022/03/20 03:59:42;;;;;;;119.40;107.07;;;5.80;84.50;;;;;;5065019;28;20057;-76
2022/03/20 04:02:09;;;;;;;121.38;108.50;;;5.70;84.60;;;;;;5058358;28;20053;-76
2022/03/20 04:04:36;;;;;;;118.93;106.65;;;5.70;84.60;;;;;;5035844;28;20041;-76
2022/03/20 04:07:04;;;;;;;119.85;107.45;;;5.70;84.70;;;;;;5053806;28;20050;-76
2022/03/20 04:09:31;;;;;;;119.45;107.20;;;5.60;84.70;;;;;;5052549;28;20061;-76
2022/03/20 04:11:59;;;;;;;120.20;107.93;;;5.60;84.70;;;;;;5035869;28;20512;-76
2022/03/20 04:14:28;;;;;;;122.07;109.28;;;5.60;84.80;;;;;;5053643;28;20052;-76
2022/03/20 04:16:57;;;;;;;121.10;108.75;;;5.60;84.80;;;;;;5035551;28;20535;-76
2022/03/20 04:19:25;;;;;;;120.32;107.82;;;5.60;84.70;;;;;;5035776;28;20053;-76
2022/03/20 04:21:52;;;;;;;120.40;108.13;;;5.60;84.60;;;;;;5035772;28;20092;-76
2022/03/20 04:24:19;;;;;;;120.78;108.45;;;5.50;84.70;;;;;;5035567;28;20041;-76
2022/03/20 04:26:46;;;;;;;122.03;109.57;;;5.50;84.80;;;;;;5039344;28;20056;-76
2022/03/20 04:29:13;;;;;;;123.65;110.93;;;5.50;84.90;;;;;;5038913;28;20136;-76
2022/03/20 04:31:41;;;;;;;122.35;109.65;;;5.40;84.70;;;;;;5039260;28;20058;-76
2022/03/20 04:34:10;;;;;;;122.45;110.05;;;5.40;85.00;;;;;;5022713;28;20115;-76
2022/03/20 04:36:36;;;;;;;122.55;110.03;;;5.40;84.80;;;;;;5055405;28;20124;-76
2022/03/20 04:39:03;;;;;;;;;;;5.30;84.80;;;;;;5039692;28;20050;-76
2022/03/20 04:41:31;;;;;;;124.10;110.85;;;5.30;85.10;;;;;;5039009;28;19932;-76
2022/03/20 04:44:00;;;;;;;123.40;110.40;;;5.30;85.50;;;;;;5039220;28;20500;-76
2022/03/20 04:46:27;;;;;;;122.93;110.07;;;5.20;85.40;;;;;;5056945;28;20053;-76
2022/03/20 04:59:54;;;;;;;125.60;112.43;;;5.10;85.20;;;;;;5056575;28;20132;-76
2022/03/20 05:02:21;;;;;;;121.47;109.18;;;5.10;86.20;;;;;;5022118;28;20095;-76
2022/03/20 05:04:49;;;;;;;122.72;110.05;;;5.10;85.50;;;;;;5021950;28;20057;-76
2022/03/20 05:07:17;;;;;;;123.38;110.63;;;5.10;85.20;;;;;;5058075;28;20091;-76
2022/03/20 05:15:12;;;;;;;125.13;112.28;;;5.10;84.60;;;;;;5057462;28;20077;-76
2022/03/20 05:17:39;;;;;;;123.82;110.95;;;5.00;84.70;;;;;;5075994;28;20147;-77
2022/03/20 05:20:08;;;;;;;;;;;5.00;85.10;;;;;;5058801;28;20056;-76
2022/03/20 05:22:37;;;;;;;124.47;111.32;;;5.00;84.90;;;;;;5057737;28;20019;-76
2022/03/20 05:25:08;;;;;;;123.95;110.95;;;5.00;84.80;;;;;;5057786;28;20191;-76
2022/03/20 05:27:35;;;;;;;123.90;111.07;;;5.00;84.50;;;;;;5059500;28;20525;-76
2022/03/20 05:30:02;;;;;;;126.03;113.13;;;4.90;84.50;;;;;;5058115;28;20053;-76
2022/03/20 05:32:29;;;;;;;;;;;4.90;84.50;;;;;;5058066;28;20052;-76
2022/03/20 05:34:57;;;;;;;124.32;111.32;;;4.80;85.00;;;;;;5076371;28;19929;-76
2022/03/20 05:37:26;;;;;;;124.65;111.85;;;4.80;84.90;;;;;;5047725;28;20059;-76
2022/03/20 05:39:52;;;;;;;123.75;111.22;;;4.80;84.60;;;;;;5067575;28;20061;-75
2022/03/20 05:42:19;;;;;;;;;;;4.80;85.00;;;;;;5060482;28;20058;-78
2022/03/20 05:44:46;;;;;;;126.75;113.57;;;4.80;84.80;;;;;;5022593;28;20055;-77
2022/03/20 05:47:13;;;;;;;;;;;4.80;84.70;;;;;;5050064;28;21016;-79
2022/03/20 05:49:41;;;;;;;127.63;114.45;;;4.80;84.80;;;;;;5068807;28;19924;-77
2022/03/20 05:52:08;;;;;;;126.68;113.80;;;4.80;84.50;;;;;;5039262;28;20845;-78
2022/03/20 05:54:36;;;;;;;127.72;114.60;;;4.80;84.90;;;;;;5055882;28;20132;-77
2022/03/20 05:59:49;;;;;;;128.63;115.43;;;4.80;84.50;;;;;;5056093;28;20561;-75
2022/03/20 06:02:17;;;;;;;125.63;112.63;;;4.80;84.00;;;;;;5073895;28;20052;-75
2022/03/20 06:04:44;;;;;;;126.15;113.40;;;4.80;84.00;;;;;;5055829;28;20048;-76
2022/03/20 06:07:10;;;;;;;;;;;4.70;84.30;;;;;;5039512;28;20522;-78
2022/03/20 06:09:39;;;;;;;125.97;112.47;;;4.70;84.90;;;;;;5056283;28;19924;-81
2022/03/20 06:12:08;;;;;;;125.95;113.03;;;4.60;84.60;;;;;;5074199;28;20061;-78
2022/03/20 06:14:35;;;;;;;128.93;115.50;;;4.70;85.10;;;;;;5061087;28;20125;-79
2022/03/20 06:17:04;;;;;;;129.27;116.15;;;4.70;84.70;;;;;;5034920;28;20565;-80
2022/03/20 06:19:31;;;;;;;127.22;114.22;;;4.70;85.10;;;;;;5055469;28;20049;-79
2022/03/20 06:21:59;;;;;;;127.43;114.22;;;4.80;84.50;;;;;;5045278;28;20058;-81
2022/03/20 06:24:26;;;;;;;128.73;115.47;;;4.70;84.30;;;;;;5018954;28;20041;-79
2022/03/20 06:26:54;;;;;;;126.95;113.57;;;4.80;84.90;;;;;;5034833;28;20059;-78
2022/03/20 06:29:21;;;;;;;126.60;113.60;;;4.80;84.20;;;;;;5018936;28;20141;-79
2022/03/20 06:31:49;;;;;;;;;;;4.90;84.20;;;;;;5036103;28;20061;-84
2022/03/20 06:34:17;;;;;;;126.57;113.45;;;4.80;84.00;;;;;;5019552;28;20914;-78
2022/03/20 06:36:44;;;;;;;127.43;114.15;;;4.80;83.90;;;;;;5034591;28;20053;-78
2022/03/20 06:39:11;;;;;;;127.25;114.05;;;4.90;83.70;;;;;;5035654;28;20053;-79
2022/03/20 06:41:38;;;;;;;;;;;4.80;83.30;;;;;;5036461;28;20091;-77
2022/03/20 06:44:06;;;;;;;126.35;113.10;;;4.80;84.20;;;;;;5035873;28;19928;-78
2022/03/20 06:46:37;;;;;;;127.40;114.10;;;4.80;83.70;;;;;;5035491;28;20053;-77
2022/03/20 06:49:06;;;;;;;127.68;114.40;;;4.80;83.50;;;;;;5034778;28;20058;-73
2022/03/20 06:51:33;;;;;;;127.28;113.90;;;4.80;83.30;;;;;;5053183;28;20136;-74
2022/03/20 06:54:00;;;;;;;128.20;114.78;;;4.80;83.50;;;;;;5053241;28;20057;-74
2022/03/20 06:56:28;;;;;;;128.85;115.38;;;4.80;83.10;;;;;;5036804;28;20053;-76
2022/03/20 06:58:55;;;;;;;127.82;114.53;;;4.80;83.40;;;;;;5021105;28;20049;-78
2022/03/20 07:01:24;;;;;;;128.98;115.80;;;4.80;83.60;;;;;;5035207;28;20053;-78
2022/03/20 07:03:51;;;;;;;126.93;113.60;;;4.80;83.50;;;;;;5034933;28;20046;-77
2022/03/20 07:06:18;;;;;;;129.80;116.05;;;4.80;83.20;;;;;;5019181;28;20061;-76
2022/03/20 07:08:45;;;;;;;127.47;114.30;;;4.80;83.20;;;;;;5053018;28;20103;-76
2022/03/20 07:11:14;;;;;;;;;;;4.80;83.10;;;;;;5034422;28;20075;-76
2022/03/20 07:13:53;;;;;;;126.03;112.97;;;4.80;83.00;;;;;;5062580;28;19929;-75
2022/03/20 07:16:23;;;;;;;145.82;115.95;;;4.80;83.10;;;;;;5070980;28;20053;-76
2022/03/20 07:18:51;;;;;;;128.18;114.72;;;4.80;82.40;;;;;;5043576;28;20077;-81
2022/03/20 07:21:18;;;;;;;126.05;113.03;;;4.80;83.10;;;;;;5043290;28;20059;-77
2022/03/20 07:23:46;;;;;;;126.07;113.07;;;4.80;82.80;;;;;;5048646;28;20526;-80
2022/03/20 07:31:42;;;;;;;125.75;112.35;;;4.80;82.30;;;;;;5029896;28;20518;-81
2022/03/20 07:34:11;;;;;;;127.90;114.57;;;4.80;82.00;;;;;;5050893;28;20057;-81
2022/03/20 07:36:38;;;;;;;127.30;113.93;;;4.80;82.10;;;;;;5049076;28;20053;-78
2022/03/20 07:39:05;;;;;;;130.70;114.53;;;4.80;82.70;;;;;;5034077;28;20060;-80
2022/03/20 07:41:32;;;;;;;;;;;4.80;81.90;;;;;;5034656;28;20096;-77
2022/03/20 07:43:59;;;;;;;125.65;112.20;;;4.80;82.00;;;;;;5052950;28;19929;-76
2022/03/20 07:46:25;;;;;;;;;;;4.80;82.20;;;;;;5034609;28;20542;-76
2022/03/20 07:48:52;;;;;;;125.40;111.82;;;4.80;82.70;;;;;;5034688;28;19925;-78
2022/03/20 07:51:21;;;;;;;126.80;113.40;;;4.80;82.00;;;;;;5035688;28;20503;-75
2022/03/20 07:53:48;;;;;;;127.70;114.20;;;4.80;81.50;;;;;;5037836;28;20077;-75
2022/03/20 07:56:18;;;;;;;128.00;114.40;;;4.90;81.30;;;;;;5035615;28;20120;-78
2022/03/20 07:58:45;;;;;;;127.55;114.03;;;4.90;81.70;;;;;;5032749;28;20500;-77
2022/03/20 08:01:12;;;;;;;127.72;114.53;;;4.90;81.50;;;;;;5052582;28;20053;-74
2022/03/20 08:03:40;;;;;;;;;;;5.00;81.00;;;;;;5035712;28;20055;-76
2022/03/20 08:06:07;;;;;;;126.03;112.72;;;5.00;80.70;;;;;;5049919;28;20002;-77
2022/03/20 08:08:39;;;;;;;128.45;114.32;;;5.00;80.50;;;;;;5055979;28;20064;-75
2022/03/20 08:11:07;;;;;;;126.57;113.18;;;5.10;80.70;;;;;;5038346;28;20132;-78
2022/03/20 08:13:34;;;;;;;127.93;114.32;;;5.10;80.70;;;;;;5038572;28;20406;-77
2022/03/20 08:16:01;;;;;;;;;;;5.10;80.50;;;;;;5041137;28;20042;-74
2022/03/20 08:18:28;;;;;;;129.18;115.47;;;5.20;82.20;;;;;;5058809;28;20491;-74
2022/03/20 08:20:55;;;;;;;127.68;114.20;;;5.20;81.00;;;;;;5056956;28;20049;-76
2022/03/20 08:23:22;;;;;;;127.70;114.50;;;5.30;80.50;;;;;;5018604;28;20045;-78
2022/03/20 08:25:51;;;;;;;129.45;115.75;;;5.30;80.60;;;;;;5054544;28;20951;-78
2022/03/20 08:28:17;;;;;;;128.27;114.90;;;5.40;79.80;;;;;;5050930;28;20156;-78
2022/03/20 08:30:44;;;;;;;;;;;5.50;79.50;;;;;;5053666;28;20401;-79
2022/03/20 08:33:11;;;;;;;142.77;115.00;;;5.50;78.90;;;;;;5035283;28;19935;-81
2022/03/20 08:35:38;;;;;;;;;;;5.50;78.00;;;;;;5036658;28;20057;-78
2022/03/20 08:38:05;;;;;;;127.22;113.72;;;5.60;77.80;;;;;;5041762;28;19924;-78
2022/03/20 08:40:33;;;;;;;128.15;114.65;;;5.60;76.80;;;;;;5038626;28;20501;-78
2022/03/20 08:43:04;;;;;;;129.20;115.30;;;5.60;77.00;;;;;;5043838;28;20045;-79
2022/03/20 08:45:33;;;;;;;128.60;115.40;;;5.60;76.90;;;;;;5054749;28;20088;-78
2022/03/20 08:48:01;;;;;;;129.45;115.88;;;5.70;76.80;;;;;;5052837;28;20060;-77
2022/03/20 08:50:28;;;;;;;129.77;116.18;;;5.70;78.20;;;;;;5036894;28;20067;-77
2022/03/20 08:52:54;;;;;;;;;;;5.80;77.20;;;;;;5037188;28;20077;-80
2022/03/20 08:55:22;;;;;;;129.10;115.30;;;5.80;76.70;;;;;;5072527;28;20020;-80
2022/03/20 08:57:51;;;;;;;128.82;115.55;;;5.90;75.60;;;;;;5045359;28;20104;-79
2022/03/20 09:00:21;;;;;;;132.57;118.97;;;6.00;75.40;;;;;;5035612;28;20515;-80
2022/03/20 09:02:50;;;;;;;129.88;116.47;;;6.10;75.60;;;;;;5039671;28;20071;-80
2022/03/20 09:05:17;;;;;;;129.38;115.90;;;6.20;75.40;;;;;;5050616;28;20144;-82
2022/03/20 09:07:46;;;;;;;131.55;117.88;;;6.30;73.10;;;;;;5055020;28;20140;-78
2022/03/20 09:10:15;;;;;;;131.93;118.25;;;6.40;74.70;;;;;;5050967;28;20080;-79
2022/03/20 09:12:43;;;;;;;130.90;117.53;;;6.40;73.80;;;;;;5024470;28;20041;-78
2022/03/20 09:15:12;;;;;;;130.40;116.85;;;6.50;71.40;;;;;;5047291;28;20052;-79
2022/03/20 09:20:25;;;;;;;131.00;116.85;;;6.70;70.70;;;;;;5048937;28;20052;-79
2022/03/20 09:22:52;;;;;;;131.15;117.63;;;6.70;69.60;;;;;;5052091;28;20128;-79
2022/03/20 09:25:19;;;;;;;130.80;115.97;;;6.80;69.60;;;;;;5037558;28;20054;-77
2022/03/20 09:27:48;;;;;;;135.40;118.60;;;6.80;69.00;;;;;;5054598;28;20060;-79
2022/03/20 09:30:15;;;;;;;131.38;117.72;;;6.90;68.40;;;;;;5042511;28;20957;-78
2022/03/20 09:32:44;;;;;;;131.45;117.45;;;7.00;68.60;;;;;;5053978;28;20095;-79
2022/03/20 09:35:11;;;;;;;133.57;119.20;;;7.00;68.20;;;;;;5058040;28;20057;-78
2022/03/20 09:37:38;;;;;;;131.40;117.90;;;7.10;68.30;;;;;;5056212;28;20053;-78
2022/03/20 09:40:09;;;;;;;145.77;118.82;;;7.20;67.90;;;;;;5039823;28;20459;-78
2022/03/20 09:42:37;;;;;;;130.27;116.85;;;7.30;68.30;;;;;;5037992;28;20049;-79
2022/03/20 09:45:05;;;;;;;133.48;119.55;;;7.30;67.00;;;;;;5027912;28;20058;-79
2022/03/20 09:47:35;;;;;;;131.68;118.15;;;7.40;65.90;;;;;;5049361;28;20510;-80
2022/03/20 09:50:04;;;;;;;129.30;116.15;;;7.40;65.10;;;;;;5052152;28;20083;-82
2022/03/20 09:52:32;;;;;;;132.00;118.68;;;7.50;65.50;;;;;;5027857;28;20056;-82
2022/03/20 09:54:59;;;;;;;132.45;119.15;;;7.60;66.20;;;;;;5037386;28;20043;-82
2022/03/20 09:57:29;;;;;;;130.40;116.75;;;7.70;65.00;;;;;;5049325;28;20115;-83
2022/03/20 09:59:57;;;;;;;132.98;118.75;;;7.70;65.40;;;;;;5051281;28;20049;-81
2022/03/20 10:02:28;;;;;;;131.77;118.53;;;7.80;64.20;;;;;;5052704;28;20393;-84
2022/03/20 10:04:56;;;;;;;131.85;118.55;;;7.90;64.00;;;;;;5057666;28;20517;-81
2022/03/20 10:07:25;;;;;;;132.23;118.60;;;7.90;65.10;;;;;;5047889;28;20049;-80
2022/03/20 10:10:14;;;;;;;133.52;120.25;;;8.00;65.00;;;;;;5049859;28;20050;-84
2022/03/20 10:12:44;;;;;;;133.38;119.72;;;8.10;65.50;;;;;;5041251;28;20165;-79
2022/03/20 10:15:26;;;;;;;134.20;120.50;;;8.20;66.10;;;;;;5052423;28;20053;-80
2022/03/20 10:18:06;;;;;;;148.85;119.43;;;8.30;63.40;;;;;;5036969;28;20504;-87
2022/03/20 10:20:37;;;;;;;130.00;116.65;;;8.40;62.00;;;;;;5050385;28;20103;-81
2022/03/20 10:23:05;;;;;;;134.02;120.13;;;8.40;62.30;;;;;;5044509;28;20046;-81
2022/03/20 10:25:32;;;;;;;132.82;119.32;;;8.50;61.90;;;;;;5049076;28;20171;-85
2022/03/20 10:28:00;;;;;;;137.30;119.40;;;8.50;61.30;;;;;;5052332;28;20060;-77
2022/03/20 10:30:27;;;;;;;132.95;119.57;;;8.60;61.40;;;;;;5045916;28;20518;-81
2022/03/20 10:32:53;;;;;;;132.27;118.55;;;8.60;61.30;;;;;;5049416;28;20515;-79
2022/03/20 10:35:21;;;;;;;245.30;126.55;;;8.70;60.30;;;;;;5057286;28;20065;-82
2022/03/20 10:37:56;;;;;;;131.63;117.32;;;8.80;61.20;;;;;;5036379;28;20046;-87
2022/03/20 10:40:26;;;;;;;237.30;121.60;;;8.90;61.80;;;;;;5023718;28;20053;-82
2022/03/20 10:43:10;;;;;;;131.25;116.70;;;9.00;60.20;;;;;;5036659;28;20602;-78
2022/03/20 10:45:54;;;;;;;130.40;116.43;;;9.00;59.00;;;;;;5055901;28;20053;-84
2022/03/20 10:48:30;;;;;;;131.52;117.93;;;9.10;59.60;;;;;;5032248;28;20136;-78
2022/03/20 10:50:57;;;;;;;141.90;115.10;;;9.20;59.40;;;;;;5046422;28;20136;-88
2022/03/20 10:53:24;;;;;;;131.45;117.60;;;9.30;59.20;;;;;;5023290;28;20227;-81
2022/03/20 10:55:57;;;;;;;132.93;118.72;;;9.30;58.50;;;;;;5043643;28;20067;-79
2022/03/20 10:58:26;;;;;;;134.32;119.38;;;9.40;58.10;;;;;;5032442;28;20153;-83
2022/03/20 11:00:56;;;;;;;129.90;116.28;;;9.40;58.10;;;;;;5020372;28;20131;-82
2022/03/20 11:03:24;;;;;;;132.85;118.68;;;9.50;57.80;;;;;;5051428;28;20152;-82
2022/03/20 11:05:51;;;;;;;131.68;117.65;;;9.50;59.20;;;;;;5037201;28;20542;-83
2022/03/20 11:08:19;;;;;;;133.38;119.80;;;9.60;58.90;;;;;;5020161;28;20055;-83
2022/03/20 11:10:49;;;;;;;130.02;116.68;;;9.70;58.50;;;;;;5037134;28;20970;-82
2022/03/20 11:13:19;;;;;;;130.50;117.43;;;9.80;58.60;;;;;;5036525;28;20053;-82
2022/03/20 11:15:46;;;;;;;132.07;118.35;;;9.80;59.10;;;;;;5020666;28;20057;-83
2022/03/20 11:18:15;;;;;;;130.75;117.72;;;9.90;58.60;;;;;;5020276;28;20232;-83
2022/03/20 11:20:45;;;;;;;200.55;118.93;;;10.00;58.70;;;;;;5028393;28;20053;-83
2022/03/20 11:23:15;;;;;;;132.25;118.50;;;10.10;58.50;;;;;;5027571;28;20052;-81
2022/03/20 11:25:45;;;;;;;160.10;116.63;;;10.20;57.00;;;;;;5036260;28;20127;-88
2022/03/20 11:28:13;;;;;;;132.35;118.72;;;10.30;56.50;;;;;;5035573;28;20049;-83
2022/03/20 11:31:13;;;;;;;131.40;117.30;;;10.30;57.50;;;;;;5037188;28;20056;-89
2022/03/20 11:33:43;;;;;;;228.95;122.40;;;10.40;58.80;;;;;;5036259;28;20081;-82
2022/03/20 11:36:12;;;;;;;131.88;118.80;;;10.60;56.10;;;;;;5039489;28;20053;-82
2022/03/20 11:38:40;;;;;;;131.05;117.93;;;10.60;55.40;;;;;;5039855;28;20057;-86
2022/03/20 11:41:12;;;;;;;151.38;118.93;;;10.70;56.30;;;;;;5058747;28;20056;-84
2022/03/20 11:43:40;;;;;;;132.38;119.18;;;10.80;58.60;;;;;;5039521;28;20532;-82
2022/03/20 11:46:21;;;;;;;131.95;118.25;;;10.90;58.70;;;;;;5056899;28;20056;-86
2022/03/20 11:49:21;;;;;;;133.93;119.45;;;11.00;57.00;;;;;;5039001;28;20053;-85
2022/03/20 11:52:00;;;;;;;131.45;118.50;;;11.10;58.20;;;;;;5040424;28;20159;-84
2022/03/20 11:54:48;;;;;;;130.80;117.78;;;11.30;56.60;;;;;;5056359;28;20124;-89
2022/03/20 11:57:38;;;;;;;144.00;120.22;;;11.30;56.00;;;;;;5026624;28;20111;-87
2022/03/20 12:00:14;;;;;;;131.80;118.68;;;11.40;59.30;;;;;;5036802;28;20059;-88
2022/03/20 12:03:02;;;;;;;166.15;121.15;;;11.50;56.50;;;;;;5035999;28;20137;-83
2022/03/20 12:05:40;;;;;;;139.07;119.95;;;11.60;55.40;;;;;;5029412;28;20053;-82
2022/03/20 12:08:25;;;;;;;140.20;119.22;;;11.70;54.60;;;;;;5055485;28;20045;-78
2022/03/20 12:11:02;;;;;;;134.13;119.75;;;11.80;55.20;;;;;;5028722;28;20064;-79
2022/03/20 12:13:39;;;;;;;133.93;119.88;;;11.80;54.20;;;;;;5037257;28;20143;-82
2022/03/20 12:16:09;;;;;;;137.75;123.53;;;11.80;54.30;;;;;;5018711;28;20053;-82
2022/03/20 12:19:08;;;;;;;139.20;122.25;;;11.90;53.60;;;;;;5035787;28;20049;-81
2022/03/20 12:21:58;;;;;;;146.65;122.95;;;11.90;53.80;;;;;;5017564;28;20135;-81
2022/03/20 12:24:52;;;;;;;140.38;122.70;;;12.00;56.30;;;;;;5034445;28;20583;-83
2022/03/20 12:27:41;;;;;;;133.73;120.85;;;12.00;53.00;;;;;;5013312;28;20060;-83
2022/03/20 12:30:34;;;;;;;141.88;121.85;;;12.10;55.80;;;;;;5044487;28;20132;-84
2022/03/20 12:33:23;;;;;;;131.57;118.68;;;12.20;54.90;;;;;;5039946;28;20121;-88
2022/03/20 12:35:52;;;;;;;142.70;121.40;;;12.20;52.50;;;;;;5039722;28;20144;-84
2022/03/20 12:38:40;;;;;;;153.48;121.65;;;12.20;53.50;;;;;;5055128;28;20060;-84
2022/03/20 12:41:17;;;;;;;132.90;119.38;;;12.30;55.70;;;;;;5038758;28;20808;-84
2022/03/20 12:43:58;;;;;;;135.85;122.78;;;12.40;55.80;;;;;;5029440;28;20136;-84
2022/03/20 12:46:26;;;;;;;133.88;120.65;;;12.60;55.90;;;;;;5036842;28;20397;-85
2022/03/20 12:48:55;;;;;;;134.45;121.43;;;12.60;55.10;;;;;;5042060;28;20111;-85
2022/03/20 12:51:32;;;;;;;136.00;121.97;;;12.60;53.40;;;;;;5047897;28;20056;-85
2022/03/20 12:54:15;;;;;;;145.30;123.68;;;12.70;52.90;;;;;;5024118;28;20060;-83
2022/03/20 12:56:53;;;;;;;135.68;122.45;;;12.70;53.80;;;;;;5042450;28;20091;-84
2022/03/20 12:59:21;;;;;;;134.75;121.70;;;12.60;53.70;;;;;;5057056;28;20049;-84
2022/03/20 13:01:48;;;;;;;138.63;124.85;;;12.60;53.20;;;;;;5041640;28;20092;-84
2022/03/20 13:04:16;;;;;;;135.40;122.47;;;12.60;51.70;;;;;;5030585;28;20140;-81
2022/03/20 13:06:45;;;;;;;134.05;121.10;;;12.60;53.20;;;;;;5038413;28;20054;-80
2022/03/20 13:09:13;;;;;;;133.15;120.50;;;12.60;52.60;;;;;;5042104;28;20059;-81
2022/03/20 13:11:51;;;;;;;133.95;121.15;;;12.60;52.60;;;;;;5058209;28;20056;-81